Timber Lake, Illinois
Current Conditions -  °F | °C
As of 11:52 AM on Monday 24 Nov 2014 (Local Time) from KPWK Reporting Station
Moderate Snow Moderate Snow  
Wind Chill: 22°   Ceiling: 800
Heat Index: 32°   Visibility: 0.25mi
Dew Point: 30°   Wind: 15mph
Humidity: 92%   Direction: 240°WSW
Pressure: 29.3"   Gusts: 33mph
Location:  42.1512°N, 88.1636°W
Report Text: KPWK 241752Z 24013G29KT 1/4SM SN FG OVC008 00/M01 A2930 RMK AO2 PK WND 25029/1747 SLP926 P0004 60027 T00001011 10089 20000 53052
Loading
Personal Weather Stations






























Interactive Weather Map New forecast layout! Learn more

10-Day Weather Forecast

Advertisements
Track Severe Weather on mobile